sensor_id;sensor_type;location;lat;lon;timestamp;temperature;humidity
774;DHT22;370;48.810;9.150;2023-04-15T00:00:07;4.20;24.70
774;DHT22;370;48.810;9.150;2023-04-15T00:02:35;4.20;24.50
774;DHT22;370;48.810;9.150;2023-04-15T00:05:03;4.20;24.80
774;DHT22;370;48.810;9.150;2023-04-15T00:07:30;4.20;25.20
774;DHT22;370;48.810;9.150;2023-04-15T00:09:57;4.10;26.00
774;DHT22;370;48.810;9.150;2023-04-15T00:12:24;4.10;25.90
774;DHT22;370;48.810;9.150;2023-04-15T00:14:51;4.10;25.80
774;DHT22;370;48.810;9.150;2023-04-15T00:17:20;4.10;25.60
774;DHT22;370;48.810;9.150;2023-04-15T00:19:47;4.10;25.80
774;DHT22;370;48.810;9.150;2023-04-15T00:22:14;4.10;26.40
774;DHT22;370;48.810;9.150;2023-04-15T00:24:41;4.10;26.50
774;DHT22;370;48.810;9.150;2023-04-15T00:27:08;4.10;26.10
774;DHT22;370;48.810;9.150;2023-04-15T00:29:35;4.10;26.70
774;DHT22;370;48.810;9.150;2023-04-15T00:32:02;4.00;26.40
774;DHT22;370;48.810;9.150;2023-04-15T00:34:30;4.00;26.60
774;DHT22;370;48.810;9.150;2023-04-15T00:36:57;4.00;27.30
774;DHT22;370;48.810;9.150;2023-04-15T00:39:25;3.90;27.30
774;DHT22;370;48.810;9.150;2023-04-15T00:41:52;4.00;27.00
774;DHT22;370;48.810;9.150;2023-04-15T00:44:20;3.90;27.20
774;DHT22;370;48.810;9.150;2023-04-15T00:46:47;3.90;27.00
774;DHT22;370;48.810;9.150;2023-04-15T00:49:16;3.90;27.30
774;DHT22;370;48.810;9.150;2023-04-15T00:51:45;3.90;27.00
774;DHT22;370;48.810;9.150;2023-04-15T00:54:12;3.90;27.30
774;DHT22;370;48.810;9.150;2023-04-15T00:56:39;3.90;27.30
774;DHT22;370;48.810;9.150;2023-04-15T00:59:07;3.80;27.20
774;DHT22;370;48.810;9.150;2023-04-15T01:01:35;3.80;27.20
774;DHT22;370;48.810;9.150;2023-04-15T01:04:02;3.80;27.20
774;DHT22;370;48.810;9.150;2023-04-15T01:06:29;3.70;27.20
774;DHT22;370;48.810;9.150;2023-04-15T01:08:58;3.70;27.10
774;DHT22;370;48.810;9.150;2023-04-15T01:11:26;3.70;27.10
774;DHT22;370;48.810;9.150;2023-04-15T01:13:55;3.60;27.10
774;DHT22;370;48.810;9.150;2023-04-15T01:16:22;3.60;27.10
774;DHT22;370;48.810;9.150;2023-04-15T01:18:49;3.60;27.10
774;DHT22;370;48.810;9.150;2023-04-15T01:21:16;3.50;27.00
774;DHT22;370;48.810;9.150;2023-04-15T01:23:46;3.50;27.00
774;DHT22;370;48.810;9.150;2023-04-15T01:26:14;3.50;27.10
774;DHT22;370;48.810;9.150;2023-04-15T01:28:41;3.40;27.40
774;DHT22;370;48.810;9.150;2023-04-15T01:31:11;3.50;27.90
774;DHT22;370;48.810;9.150;2023-04-15T01:33:39;3.50;28.40
774;DHT22;370;48.810;9.150;2023-04-15T01:36:07;3.40;28.30
774;DHT22;370;48.810;9.150;2023-04-15T01:38:35;3.40;28.50
774;DHT22;370;48.810;9.150;2023-04-15T01:41:02;3.40;28.70
774;DHT22;370;48.810;9.150;2023-04-15T01:43:33;3.40;28.40
774;DHT22;370;48.810;9.150;2023-04-15T01:46:00;3.40;28.70
774;DHT22;370;48.810;9.150;2023-04-15T01:48:27;3.30;29.00
774;DHT22;370;48.810;9.150;2023-04-15T01:50:54;3.30;29.00
774;DHT22;370;48.810;9.150;2023-04-15T01:53:22;3.30;28.80
774;DHT22;370;48.810;9.150;2023-04-15T01:55:48;3.30;28.30
774;DHT22;370;48.810;9.150;2023-04-15T01:58:15;3.20;28.40
774;DHT22;370;48.810;9.150;2023-04-15T02:00:43;3.20;28.60
774;DHT22;370;48.810;9.150;2023-04-15T02:03:10;3.20;28.20
774;DHT22;370;48.810;9.150;2023-04-15T02:05:38;3.10;29.40
774;DHT22;370;48.810;9.150;2023-04-15T02:08:05;3.10;29.40
774;DHT22;370;48.810;9.150;2023-04-15T02:10:31;3.10;30.00
774;DHT22;370;48.810;9.150;2023-04-15T02:12:58;3.10;30.00
774;DHT22;370;48.810;9.150;2023-04-15T02:15:25;3.10;30.20
774;DHT22;370;48.810;9.150;2023-04-15T02:17:53;3.10;30.60
774;DHT22;370;48.810;9.150;2023-04-15T02:20:20;3.10;30.10
774;DHT22;370;48.810;9.150;2023-04-15T02:22:47;3.00;29.60
774;DHT22;370;48.810;9.150;2023-04-15T02:25:14;3.00;30.70
774;DHT22;370;48.810;9.150;2023-04-15T02:27:42;3.00;30.80
774;DHT22;370;48.810;9.150;2023-04-15T02:30:09;3.00;30.80
774;DHT22;370;48.810;9.150;2023-04-15T02:32:36;3.00;31.00
774;DHT22;370;48.810;9.150;2023-04-15T02:35:05;2.90;30.70
774;DHT22;370;48.810;9.150;2023-04-15T02:37:35;2.90;30.70
774;DHT22;370;48.810;9.150;2023-04-15T02:40:07;2.90;30.70
774;DHT22;370;48.810;9.150;2023-04-15T02:42:34;2.90;30.40
774;DHT22;370;48.810;9.150;2023-04-15T02:45:01;2.90;30.70
774;DHT22;370;48.810;9.150;2023-04-15T02:47:27;2.80;30.60
774;DHT22;370;48.810;9.150;2023-04-15T02:49:54;2.90;30.70
774;DHT22;370;48.810;9.150;2023-04-15T02:52:24;2.80;30.30
774;DHT22;370;48.810;9.150;2023-04-15T02:54:51;2.80;30.50
774;DHT22;370;48.810;9.150;2023-04-15T02:57:18;2.80;29.80
774;DHT22;370;48.810;9.150;2023-04-15T02:59:44;2.70;30.80
774;DHT22;370;48.810;9.150;2023-04-15T03:02:11;2.70;30.40
774;DHT22;370;48.810;9.150;2023-04-15T03:04:38;2.70;31.30
774;DHT22;370;48.810;9.150;2023-04-15T03:07:04;2.60;31.80
774;DHT22;370;48.810;9.150;2023-04-15T03:09:33;2.60;32.10
774;DHT22;370;48.810;9.150;2023-04-15T03:11:59;2.70;32.10
774;DHT22;370;48.810;9.150;2023-04-15T03:14:26;2.60;32.00
774;DHT22;370;48.810;9.150;2023-04-15T03:16:53;2.60;31.80
774;DHT22;370;48.810;9.150;2023-04-15T03:19:20;2.60;32.30
774;DHT22;370;48.810;9.150;2023-04-15T03:21:47;2.60;32.60
774;DHT22;370;48.810;9.150;2023-04-15T03:24:13;2.60;32.90
774;DHT22;370;48.810;9.150;2023-04-15T03:26:41;2.60;33.30
774;DHT22;370;48.810;9.150;2023-04-15T03:29:08;2.60;34.10
774;DHT22;370;48.810;9.150;2023-04-15T03:31:35;2.60;34.60
774;DHT22;370;48.810;9.150;2023-04-15T03:34:01;2.70;35.20
774;DHT22;370;48.810;9.150;2023-04-15T03:36:29;2.70;35.60
774;DHT22;370;48.810;9.150;2023-04-15T03:38:57;2.70;35.60
774;DHT22;370;48.810;9.150;2023-04-15T03:41:24;2.70;35.60
774;DHT22;370;48.810;9.150;2023-04-15T03:43:52;2.70;35.60
774;DHT22;370;48.810;9.150;2023-04-15T03:46:19;2.80;36.20
774;DHT22;370;48.810;9.150;2023-04-15T03:48:46;2.80;35.80
774;DHT22;370;48.810;9.150;2023-04-15T03:51:12;2.80;35.70
774;DHT22;370;48.810;9.150;2023-04-15T03:53:39;2.90;34.90
774;DHT22;370;48.810;9.150;2023-04-15T03:56:06;2.80;33.90
774;DHT22;370;48.810;9.150;2023-04-15T03:58:33;2.80;33.20
774;DHT22;370;48.810;9.150;2023-04-15T04:01:01;2.80;32.90
774;DHT22;370;48.810;9.150;2023-04-15T04:03:28;2.80;32.50
774;DHT22;370;48.810;9.150;2023-04-15T04:05:55;2.80;32.20
774;DHT22;370;48.810;9.150;2023-04-15T04:08:22;2.80;33.00
774;DHT22;370;48.810;9.150;2023-04-15T04:10:48;2.80;32.20
774;DHT22;370;48.810;9.150;2023-04-15T04:13:15;2.80;32.50
774;DHT22;370;48.810;9.150;2023-04-15T04:15:42;2.70;32.10
774;DHT22;370;48.810;9.150;2023-04-15T04:18:10;2.70;32.10
774;DHT22;370;48.810;9.150;2023-04-15T04:20:36;2.70;31.80
774;DHT22;370;48.810;9.150;2023-04-15T04:23:03;2.70;31.30
774;DHT22;370;48.810;9.150;2023-04-15T04:25:30;2.70;31.80
774;DHT22;370;48.810;9.150;2023-04-15T04:27:57;2.60;32.10
774;DHT22;370;48.810;9.150;2023-04-15T04:30:24;2.60;32.20
774;DHT22;370;48.810;9.150;2023-04-15T04:32:51;2.60;32.20
774;DHT22;370;48.810;9.150;2023-04-15T04:35:19;2.60;32.40
774;DHT22;370;48.810;9.150;2023-04-15T04:37:46;2.60;33.10
774;DHT22;370;48.810;9.150;2023-04-15T04:40:13;2.60;32.60
774;DHT22;370;48.810;9.150;2023-04-15T04:42:39;2.60;32.60
774;DHT22;370;48.810;9.150;2023-04-15T04:45:07;2.60;32.70
774;DHT22;370;48.810;9.150;2023-04-15T04:47:34;2.60;32.70
774;DHT22;370;48.810;9.150;2023-04-15T04:50:01;2.50;33.00
774;DHT22;370;48.810;9.150;2023-04-15T04:52:29;2.50;32.30
774;DHT22;370;48.810;9.150;2023-04-15T04:54:56;2.50;34.20
774;DHT22;370;48.810;9.150;2023-04-15T04:57:22;2.60;34.50
774;DHT22;370;48.810;9.150;2023-04-15T04:59:49;2.60;34.10
774;DHT22;370;48.810;9.150;2023-04-15T05:02:16;2.60;33.70
774;DHT22;370;48.810;9.150;2023-04-15T05:04:42;2.60;33.70
774;DHT22;370;48.810;9.150;2023-04-15T05:07:09;2.70;34.30
774;DHT22;370;48.810;9.150;2023-04-15T05:09:37;2.70;33.90
774;DHT22;370;48.810;9.150;2023-04-15T05:12:04;2.70;33.60
774;DHT22;370;48.810;9.150;2023-04-15T05:14:32;2.70;33.30
774;DHT22;370;48.810;9.150;2023-04-15T05:16:58;2.70;33.60
774;DHT22;370;48.810;9.150;2023-04-15T05:19:25;2.80;33.10
774;DHT22;370;48.810;9.150;2023-04-15T05:21:52;2.80;32.90
774;DHT22;370;48.810;9.150;2023-04-15T05:24:19;2.80;33.30
774;DHT22;370;48.810;9.150;2023-04-15T05:26:47;2.90;32.80
774;DHT22;370;48.810;9.150;2023-04-15T05:29:13;2.90;32.10
774;DHT22;370;48.810;9.150;2023-04-15T05:31:40;2.90;32.90
774;DHT22;370;48.810;9.150;2023-04-15T05:34:07;3.10;33.80
774;DHT22;370;48.810;9.150;2023-04-15T05:36:34;3.20;32.40
774;DHT22;370;48.810;9.150;2023-04-15T05:39:01;3.40;31.20
774;DHT22;370;48.810;9.150;2023-04-15T05:41:28;3.50;30.80
774;DHT22;370;48.810;9.150;2023-04-15T05:43:57;3.70;30.50
774;DHT22;370;48.810;9.150;2023-04-15T05:46:24;3.90;29.30
774;DHT22;370;48.810;9.150;2023-04-15T05:48:50;4.10;28.90
774;DHT22;370;48.810;9.150;2023-04-15T05:51:17;4.40;28.30
774;DHT22;370;48.810;9.150;2023-04-15T05:53:44;4.60;27.80
774;DHT22;370;48.810;9.150;2023-04-15T05:56:11;5.00;27.70
774;DHT22;370;48.810;9.150;2023-04-15T05:58:38;5.30;25.30
774;DHT22;370;48.810;9.150;2023-04-15T06:01:06;5.70;20.80
774;DHT22;370;48.810;9.150;2023-04-15T06:03:32;6.00;21.60
774;DHT22;370;48.810;9.150;2023-04-15T06:05:59;6.30;20.60
774;DHT22;370;48.810;9.150;2023-04-15T06:08:27;6.50;17.20
774;DHT22;370;48.810;9.150;2023-04-15T06:10:53;6.70;13.30
774;DHT22;370;48.810;9.150;2023-04-15T06:13:20;6.90;13.20
774;DHT22;370;48.810;9.150;2023-04-15T06:15:47;7.10;12.70
774;DHT22;370;48.810;9.150;2023-04-15T06:18:15;7.50;8.20
774;DHT22;370;48.810;9.150;2023-04-15T06:20:42;7.90;7.10
774;DHT22;370;48.810;9.150;2023-04-15T06:23:09;8.20;5.20
774;DHT22;370;48.810;9.150;2023-04-15T06:25:35;8.50;2.80
774;DHT22;370;48.810;9.150;2023-04-15T06:28:02;8.70;1.30
774;DHT22;370;48.810;9.150;2023-04-15T06:30:29;9.00;1.00
774;DHT22;370;48.810;9.150;2023-04-15T06:32:56;9.40;1.00
774;DHT22;370;48.810;9.150;2023-04-15T06:35:24;9.80;1.00
774;DHT22;370;48.810;9.150;2023-04-15T06:37:51;10.20;1.00
774;DHT22;370;48.810;9.150;2023-04-15T06:40:18;10.80;1.00
774;DHT22;370;48.810;9.150;2023-04-15T06:42:45;11.50;1.00
774;DHT22;370;48.810;9.150;2023-04-15T06:45:12;12.00;1.00
774;DHT22;370;48.810;9.150;2023-04-15T06:47:38;12.70;1.00
774;DHT22;370;48.810;9.150;2023-04-15T06:50:06;13.30;1.00
774;DHT22;370;48.810;9.150;2023-04-15T06:52:35;13.60;1.00
774;DHT22;370;48.810;9.150;2023-04-15T06:55:03;14.00;1.00
774;DHT22;370;48.810;9.150;2023-04-15T06:57:29;14.50;1.00
774;DHT22;370;48.810;9.150;2023-04-15T06:59:56;14.10;1.00
774;DHT22;370;48.810;9.150;2023-04-15T07:02:23;14.60;1.00
774;DHT22;370;48.810;9.150;2023-04-15T07:04:50;15.70;1.00
774;DHT22;370;48.810;9.150;2023-04-15T07:07:16;16.00;1.00
774;DHT22;370;48.810;9.150;2023-04-15T07:09:44;16.80;1.00
774;DHT22;370;48.810;9.150;2023-04-15T07:12:11;17.70;1.00
774;DHT22;370;48.810;9.150;2023-04-15T07:14:38;19.10;1.00
774;DHT22;370;48.810;9.150;2023-04-15T07:17:05;20.10;1.00
774;DHT22;370;48.810;9.150;2023-04-15T07:19:32;21.00;1.00
774;DHT22;370;48.810;9.150;2023-04-15T07:21:59;22.00;1.00
774;DHT22;370;48.810;9.150;2023-04-15T07:24:26;22.80;1.00
774;DHT22;370;48.810;9.150;2023-04-15T07:26:54;23.60;1.00
774;DHT22;370;48.810;9.150;2023-04-15T07:29:22;24.10;1.00
774;DHT22;370;48.810;9.150;2023-04-15T07:31:48;23.40;1.00
774;DHT22;370;48.810;9.150;2023-04-15T07:34:15;23.00;1.00
774;DHT22;370;48.810;9.150;2023-04-15T07:36:42;22.60;1.00
774;DHT22;370;48.810;9.150;2023-04-15T07:39:09;22.10;1.00
774;DHT22;370;48.810;9.150;2023-04-15T07:41:35;21.90;1.00
774;DHT22;370;48.810;9.150;2023-04-15T07:44:04;21.70;1.00
774;DHT22;370;48.810;9.150;2023-04-15T07:46:30;21.30;1.00
774;DHT22;370;48.810;9.150;2023-04-15T07:48:57;20.30;1.00
774;DHT22;370;48.810;9.150;2023-04-15T07:51:24;19.90;1.00
774;DHT22;370;48.810;9.150;2023-04-15T07:53:50;19.70;1.00
774;DHT22;370;48.810;9.150;2023-04-15T07:56:17;19.80;1.00
774;DHT22;370;48.810;9.150;2023-04-15T07:58:44;19.70;1.00
774;DHT22;370;48.810;9.150;2023-04-15T08:01:12;19.70;1.00
774;DHT22;370;48.810;9.150;2023-04-15T08:03:39;19.70;1.00
774;DHT22;370;48.810;9.150;2023-04-15T08:06:06;19.90;1.00
774;DHT22;370;48.810;9.150;2023-04-15T08:08:33;19.60;1.00
774;DHT22;370;48.810;9.150;2023-04-15T08:11:00;20.30;1.00
774;DHT22;370;48.810;9.150;2023-04-15T08:13:26;20.70;1.00
774;DHT22;370;48.810;9.150;2023-04-15T08:16:15;20.30;1.00
774;DHT22;370;48.810;9.150;2023-04-15T08:18:43;21.10;1.00
774;DHT22;370;48.810;9.150;2023-04-15T08:21:09;22.00;1.00
774;DHT22;370;48.810;9.150;2023-04-15T08:23:36;23.50;1.00
774;DHT22;370;48.810;9.150;2023-04-15T08:26:03;25.50;1.00
774;DHT22;370;48.810;9.150;2023-04-15T08:28:30;26.40;1.00
774;DHT22;370;48.810;9.150;2023-04-15T08:30:57;26.60;1.00
774;DHT22;370;48.810;9.150;2023-04-15T08:33:25;26.60;1.00
774;DHT22;370;48.810;9.150;2023-04-15T08:35:53;27.10;1.00
774;DHT22;370;48.810;9.150;2023-04-15T08:38:20;28.00;1.00
774;DHT22;370;48.810;9.150;2023-04-15T08:40:47;28.60;1.00
774;DHT22;370;48.810;9.150;2023-04-15T08:43:20;28.10;1.00
774;DHT22;370;48.810;9.150;2023-04-15T08:49:11;30.20;1.00
774;DHT22;370;48.810;9.150;2023-04-15T08:51:38;31.90;1.00
774;DHT22;370;48.810;9.150;2023-04-15T08:54:18;31.80;1.00
774;DHT22;370;48.810;9.150;2023-04-15T08:57:06;31.80;1.00
774;DHT22;370;48.810;9.150;2023-04-15T08:59:33;32.20;1.00
774;DHT22;370;48.810;9.150;2023-04-15T09:02:01;32.10;1.00
774;DHT22;370;48.810;9.150;2023-04-15T09:04:30;32.20;1.00
774;DHT22;370;48.810;9.150;2023-04-15T09:06:56;32.00;1.00
774;DHT22;370;48.810;9.150;2023-04-15T09:09:23;32.00;1.00
774;DHT22;370;48.810;9.150;2023-04-15T09:11:50;33.00;1.00
774;DHT22;370;48.810;9.150;2023-04-15T09:14:16;33.80;1.00
774;DHT22;370;48.810;9.150;2023-04-15T09:16:58;32.90;1.00
774;DHT22;370;48.810;9.150;2023-04-15T09:19:26;32.80;1.00
774;DHT22;370;48.810;9.150;2023-04-15T09:21:56;32.60;1.00
774;DHT22;370;48.810;9.150;2023-04-15T09:24:23;32.90;1.00
774;DHT22;370;48.810;9.150;2023-04-15T09:27:11;33.80;1.00
774;DHT22;370;48.810;9.150;2023-04-15T09:30:16;34.40;1.00
774;DHT22;370;48.810;9.150;2023-04-15T09:32:48;33.90;1.00
774;DHT22;370;48.810;9.150;2023-04-15T09:35:15;32.60;1.00
774;DHT22;370;48.810;9.150;2023-04-15T09:37:43;31.70;1.00
774;DHT22;370;48.810;9.150;2023-04-15T09:40:11;30.60;1.00
774;DHT22;370;48.810;9.150;2023-04-15T09:42:53;29.40;1.00
774;DHT22;370;48.810;9.150;2023-04-15T09:45:21;28.40;1.00
774;DHT22;370;48.810;9.150;2023-04-15T09:47:48;28.40;1.00
774;DHT22;370;48.810;9.150;2023-04-15T09:50:18;28.00;1.00
774;DHT22;370;48.810;9.150;2023-04-15T09:52:46;27.70;1.00
774;DHT22;370;48.810;9.150;2023-04-15T09:55:14;27.00;1.00
774;DHT22;370;48.810;9.150;2023-04-15T09:57:41;25.50;1.00
774;DHT22;370;48.810;9.150;2023-04-15T10:00:09;24.50;1.00
774;DHT22;370;48.810;9.150;2023-04-15T10:02:36;23.50;1.00
774;DHT22;370;48.810;9.150;2023-04-15T10:05:03;23.10;1.00
774;DHT22;370;48.810;9.150;2023-04-15T10:07:31;23.00;1.00
774;DHT22;370;48.810;9.150;2023-04-15T10:09:59;22.90;1.00
774;DHT22;370;48.810;9.150;2023-04-15T10:12:27;22.50;1.00
774;DHT22;370;48.810;9.150;2023-04-15T10:14:58;22.70;1.00
774;DHT22;370;48.810;9.150;2023-04-15T10:17:27;21.90;1.00
774;DHT22;370;48.810;9.150;2023-04-15T10:19:54;21.50;1.00
774;DHT22;370;48.810;9.150;2023-04-15T10:22:22;21.50;1.00
774;DHT22;370;48.810;9.150;2023-04-15T10:24:49;21.30;1.00
774;DHT22;370;48.810;9.150;2023-04-15T10:27:18;21.70;1.00
774;DHT22;370;48.810;9.150;2023-04-15T10:29:47;22.50;1.00
774;DHT22;370;48.810;9.150;2023-04-15T10:32:16;23.90;1.00
774;DHT22;370;48.810;9.150;2023-04-15T10:34:44;24.50;1.00
774;DHT22;370;48.810;9.150;2023-04-15T10:37:11;23.90;1.00
774;DHT22;370;48.810;9.150;2023-04-15T10:39:40;25.50;1.00
774;DHT22;370;48.810;9.150;2023-04-15T10:42:09;27.70;1.00
774;DHT22;370;48.810;9.150;2023-04-15T10:44:41;27.80;1.00
774;DHT22;370;48.810;9.150;2023-04-15T10:47:12;27.60;1.00
774;DHT22;370;48.810;9.150;2023-04-15T10:49:45;26.50;1.00
774;DHT22;370;48.810;9.150;2023-04-15T10:52:13;25.50;1.00
774;DHT22;370;48.810;9.150;2023-04-15T10:54:40;24.50;1.00
774;DHT22;370;48.810;9.150;2023-04-15T10:57:13;23.50;1.00
774;DHT22;370;48.810;9.150;2023-04-15T11:00:08;22.80;1.00
774;DHT22;370;48.810;9.150;2023-04-15T11:02:43;22.20;1.00
774;DHT22;370;48.810;9.150;2023-04-15T11:05:11;21.60;1.00
774;DHT22;370;48.810;9.150;2023-04-15T11:07:41;21.40;1.00
774;DHT22;370;48.810;9.150;2023-04-15T11:13:18;22.80;1.00
774;DHT22;370;48.810;9.150;2023-04-15T11:15:48;25.30;1.00
774;DHT22;370;48.810;9.150;2023-04-15T11:18:17;27.20;1.00
774;DHT22;370;48.810;9.150;2023-04-15T11:20:46;28.30;1.00
774;DHT22;370;48.810;9.150;2023-04-15T11:23:16;28.70;1.00
774;DHT22;370;48.810;9.150;2023-04-15T11:25:43;29.50;1.00
774;DHT22;370;48.810;9.150;2023-04-15T11:28:11;29.10;1.00
774;DHT22;370;48.810;9.150;2023-04-15T11:30:38;29.40;1.00
774;DHT22;370;48.810;9.150;2023-04-15T11:33:08;29.70;1.00
774;DHT22;370;48.810;9.150;2023-04-15T11:35:36;30.10;1.00
774;DHT22;370;48.810;9.150;2023-04-15T11:38:07;28.90;1.00
774;DHT22;370;48.810;9.150;2023-04-15T11:40:35;27.40;1.00
774;DHT22;370;48.810;9.150;2023-04-15T11:43:03;25.40;1.00
774;DHT22;370;48.810;9.150;2023-04-15T11:45:30;24.20;1.00
774;DHT22;370;48.810;9.150;2023-04-15T11:48:05;23.00;1.00
774;DHT22;370;48.810;9.150;2023-04-15T11:50:34;21.80;1.00
774;DHT22;370;48.810;9.150;2023-04-15T11:53:02;21.40;1.00
774;DHT22;370;48.810;9.150;2023-04-15T11:55:30;21.60;1.00
774;DHT22;370;48.810;9.150;2023-04-15T11:58:08;22.00;1.00
774;DHT22;370;48.810;9.150;2023-04-15T12:00:35;22.60;1.00
774;DHT22;370;48.810;9.150;2023-04-15T12:03:20;22.70;1.00
774;DHT22;370;48.810;9.150;2023-04-15T12:06:05;22.90;1.00
774;DHT22;370;48.810;9.150;2023-04-15T12:08:57;22.70;1.00
774;DHT22;370;48.810;9.150;2023-04-15T12:11:36;22.10;1.00
774;DHT22;370;48.810;9.150;2023-04-15T12:14:05;22.40;1.00
774;DHT22;370;48.810;9.150;2023-04-15T12:16:33;22.90;1.00
774;DHT22;370;48.810;9.150;2023-04-15T12:19:04;22.70;1.00
774;DHT22;370;48.810;9.150;2023-04-15T12:21:37;22.60;1.00
774;DHT22;370;48.810;9.150;2023-04-15T12:24:06;22.00;1.00
774;DHT22;370;48.810;9.150;2023-04-15T12:26:35;21.30;1.00
774;DHT22;370;48.810;9.150;2023-04-15T12:29:03;20.60;1.00
774;DHT22;370;48.810;9.150;2023-04-15T12:31:31;20.00;1.00
774;DHT22;370;48.810;9.150;2023-04-15T12:33:58;19.10;1.00
774;DHT22;370;48.810;9.150;2023-04-15T12:36:26;17.80;1.00
774;DHT22;370;48.810;9.150;2023-04-15T12:38:56;16.80;1.00
774;DHT22;370;48.810;9.150;2023-04-15T12:41:22;16.00;1.00
774;DHT22;370;48.810;9.150;2023-04-15T12:43:49;15.50;1.00
774;DHT22;370;48.810;9.150;2023-04-15T12:46:16;15.20;1.00
774;DHT22;370;48.810;9.150;2023-04-15T12:48:43;15.00;1.00
774;DHT22;370;48.810;9.150;2023-04-15T12:51:10;14.90;1.00
774;DHT22;370;48.810;9.150;2023-04-15T12:53:36;14.70;1.00
774;DHT22;370;48.810;9.150;2023-04-15T12:56:05;14.90;1.00
774;DHT22;370;48.810;9.150;2023-04-15T12:58:32;15.10;1.00
774;DHT22;370;48.810;9.150;2023-04-15T13:00:59;15.60;1.00
774;DHT22;370;48.810;9.150;2023-04-15T13:03:25;16.00;1.00
774;DHT22;370;48.810;9.150;2023-04-15T13:05:52;16.40;1.00
774;DHT22;370;48.810;9.150;2023-04-15T13:08:19;17.00;1.00
774;DHT22;370;48.810;9.150;2023-04-15T13:10:46;17.60;1.00
774;DHT22;370;48.810;9.150;2023-04-15T13:13:14;18.00;1.00
774;DHT22;370;48.810;9.150;2023-04-15T13:15:41;18.10;1.00
774;DHT22;370;48.810;9.150;2023-04-15T13:18:10;18.40;1.00
774;DHT22;370;48.810;9.150;2023-04-15T13:20:37;18.50;1.00
774;DHT22;370;48.810;9.150;2023-04-15T13:23:04;18.40;1.00
774;DHT22;370;48.810;9.150;2023-04-15T13:25:31;18.40;1.00
774;DHT22;370;48.810;9.150;2023-04-15T13:27:57;18.10;1.00
774;DHT22;370;48.810;9.150;2023-04-15T13:30:27;17.90;1.00
774;DHT22;370;48.810;9.150;2023-04-15T13:32:53;17.90;1.00
774;DHT22;370;48.810;9.150;2023-04-15T13:35:20;17.80;1.00
774;DHT22;370;48.810;9.150;2023-04-15T13:37:47;17.90;1.00
774;DHT22;370;48.810;9.150;2023-04-15T13:40:14;17.80;1.00
774;DHT22;370;48.810;9.150;2023-04-15T13:42:41;17.70;1.00
774;DHT22;370;48.810;9.150;2023-04-15T13:45:09;17.70;1.00
774;DHT22;370;48.810;9.150;2023-04-15T13:47:37;17.50;1.00
774;DHT22;370;48.810;9.150;2023-04-15T13:50:05;17.50;1.00
774;DHT22;370;48.810;9.150;2023-04-15T13:52:31;17.70;1.00
774;DHT22;370;48.810;9.150;2023-04-15T13:54:58;18.00;1.00
774;DHT22;370;48.810;9.150;2023-04-15T13:57:25;18.10;1.00
774;DHT22;370;48.810;9.150;2023-04-15T13:59:52;17.90;1.00
774;DHT22;370;48.810;9.150;2023-04-15T14:02:20;17.50;1.00
774;DHT22;370;48.810;9.150;2023-04-15T14:04:49;16.90;1.00
774;DHT22;370;48.810;9.150;2023-04-15T14:07:16;16.60;1.00
774;DHT22;370;48.810;9.150;2023-04-15T14:09:43;16.10;1.00
774;DHT22;370;48.810;9.150;2023-04-15T14:12:10;15.40;1.00
774;DHT22;370;48.810;9.150;2023-04-15T14:14:36;15.10;1.00
774;DHT22;370;48.810;9.150;2023-04-15T14:17:03;14.80;1.00
774;DHT22;370;48.810;9.150;2023-04-15T14:19:30;14.80;1.00
774;DHT22;370;48.810;9.150;2023-04-15T14:21:59;14.80;1.00
774;DHT22;370;48.810;9.150;2023-04-15T14:24:26;14.70;1.00
774;DHT22;370;48.810;9.150;2023-04-15T14:26:52;14.50;1.00
774;DHT22;370;48.810;9.150;2023-04-15T14:29:19;14.30;1.00
774;DHT22;370;48.810;9.150;2023-04-15T14:31:46;14.20;1.00
774;DHT22;370;48.810;9.150;2023-04-15T14:34:14;14.10;1.00
774;DHT22;370;48.810;9.150;2023-04-15T14:36:42;14.20;1.00
774;DHT22;370;48.810;9.150;2023-04-15T14:39:10;14.20;1.00
774;DHT22;370;48.810;9.150;2023-04-15T14:41:37;14.10;1.00
774;DHT22;370;48.810;9.150;2023-04-15T14:44:03;14.00;1.00
774;DHT22;370;48.810;9.150;2023-04-15T14:46:30;13.90;1.00
774;DHT22;370;48.810;9.150;2023-04-15T14:48:58;13.80;1.00
774;DHT22;370;48.810;9.150;2023-04-15T14:51:24;13.80;1.00
774;DHT22;370;48.810;9.150;2023-04-15T14:53:51;13.80;1.00
774;DHT22;370;48.810;9.150;2023-04-15T14:56:19;13.70;1.00
774;DHT22;370;48.810;9.150;2023-04-15T14:58:46;13.40;1.00
774;DHT22;370;48.810;9.150;2023-04-15T15:01:13;13.30;1.00
774;DHT22;370;48.810;9.150;2023-04-15T15:03:40;13.20;1.00
774;DHT22;370;48.810;9.150;2023-04-15T15:06:07;13.10;1.00
774;DHT22;370;48.810;9.150;2023-04-15T15:08:34;13.00;1.00
774;DHT22;370;48.810;9.150;2023-04-15T15:11:01;12.70;1.00
774;DHT22;370;48.810;9.150;2023-04-15T15:13:29;12.40;1.00
774;DHT22;370;48.810;9.150;2023-04-15T15:15:56;12.30;1.00
774;DHT22;370;48.810;9.150;2023-04-15T15:18:23;12.20;1.00
774;DHT22;370;48.810;9.150;2023-04-15T15:20:50;12.10;1.00
774;DHT22;370;48.810;9.150;2023-04-15T15:23:17;12.00;1.00
774;DHT22;370;48.810;9.150;2023-04-15T15:25:45;12.10;1.00
774;DHT22;370;48.810;9.150;2023-04-15T15:28:12;12.10;1.00
774;DHT22;370;48.810;9.150;2023-04-15T15:30:40;12.10;1.00
774;DHT22;370;48.810;9.150;2023-04-15T15:33:07;12.10;1.00
774;DHT22;370;48.810;9.150;2023-04-15T15:35:34;12.20;1.00
774;DHT22;370;48.810;9.150;2023-04-15T15:38:00;12.20;1.00
774;DHT22;370;48.810;9.150;2023-04-15T15:40:27;12.20;1.00
774;DHT22;370;48.810;9.150;2023-04-15T15:42:54;12.10;1.00
774;DHT22;370;48.810;9.150;2023-04-15T15:45:21;12.10;1.00
774;DHT22;370;48.810;9.150;2023-04-15T15:47:49;12.10;1.00
774;DHT22;370;48.810;9.150;2023-04-15T15:50:16;12.00;1.00
774;DHT22;370;48.810;9.150;2023-04-15T15:52:42;12.00;1.00
774;DHT22;370;48.810;9.150;2023-04-15T15:55:09;12.00;1.00
774;DHT22;370;48.810;9.150;2023-04-15T15:57:36;12.30;1.00
774;DHT22;370;48.810;9.150;2023-04-15T16:00:03;12.30;1.00
774;DHT22;370;48.810;9.150;2023-04-15T16:02:30;12.40;1.00
774;DHT22;370;48.810;9.150;2023-04-15T16:04:59;12.60;1.00
774;DHT22;370;48.810;9.150;2023-04-15T16:07:25;12.60;1.00
774;DHT22;370;48.810;9.150;2023-04-15T16:09:52;12.60;1.00
774;DHT22;370;48.810;9.150;2023-04-15T16:12:19;12.50;1.00
774;DHT22;370;48.810;9.150;2023-04-15T16:14:46;12.40;1.00
774;DHT22;370;48.810;9.150;2023-04-15T16:17:13;12.30;1.00
774;DHT22;370;48.810;9.150;2023-04-15T16:19:39;12.30;1.00
774;DHT22;370;48.810;9.150;2023-04-15T16:22:08;12.10;1.00
774;DHT22;370;48.810;9.150;2023-04-15T16:24:34;12.10;1.00
774;DHT22;370;48.810;9.150;2023-04-15T16:27:01;12.00;1.00
774;DHT22;370;48.810;9.150;2023-04-15T16:29:28;12.00;1.00
774;DHT22;370;48.810;9.150;2023-04-15T16:31:54;11.90;1.00
774;DHT22;370;48.810;9.150;2023-04-15T16:34:21;12.00;1.00
774;DHT22;370;48.810;9.150;2023-04-15T16:36:48;11.90;1.00
774;DHT22;370;48.810;9.150;2023-04-15T16:39:16;11.90;1.00
774;DHT22;370;48.810;9.150;2023-04-15T16:41:44;11.90;1.00
774;DHT22;370;48.810;9.150;2023-04-15T16:47:39;11.90;1.00
774;DHT22;370;48.810;9.150;2023-04-15T16:50:07;11.80;1.00
774;DHT22;370;48.810;9.150;2023-04-15T16:52:34;11.70;2.30
774;DHT22;370;48.810;9.150;2023-04-15T16:55:02;11.60;1.00
774;DHT22;370;48.810;9.150;2023-04-15T17:00:51;11.30;5.20
774;DHT22;370;48.810;9.150;2023-04-15T17:03:18;11.20;5.80
774;DHT22;370;48.810;9.150;2023-04-15T17:05:45;11.10;8.10
774;DHT22;370;48.810;9.150;2023-04-15T17:08:12;11.10;10.00